Thunder radar more information blitzortung!


Löydät sääaseman tiedot myös:

European Weather Network

Finland Weather Exchange

Weather Underground

AWEKAS



Weather Underground säähistoriasivu

Päivittäin yhteenveto Maaliskuu 6, 2017 Yksiköt:  Englantilaiset    Metriset   Molemmat
« Edellinen Päivä
Seuraava Päivä »
Päivittäin Viikoittain Kuukausittain Vuosittain Mukautettu
  Korkea: Matala: Keskiarvo:
Lämpötila: TemperatureC °F -14.6 °F -9.3 °F
Kastepiste: DewpointC °F -16.0 °F -10.8 °F
Kosteus: Humidity % 79 % 88 %
Tuulen nopeus: WindSpeedKMH mph 0.0 mph 0 mph
Tuulenpuuska: WindSpeedGustKMH mph - -
Tuuli:- - North
Ilmanpaine: PressurehPa in 1019.9 in -
Sade: 0.0 in    
Historical Graphs
 
 
Taulukkotiedot Maaliskuu 6, 2017
Aika Lämpötila Kastepiste Ilmanpaine Tuuli Tuulen nopeus Tuulenpuuska Kosteus Sademäärä (tunneittain)
TemperatureC °F DewpointC °F PressurehPa in Calm     Humidity % HourlyPrecipMM in
00:00 -10.4 °F -11.4 °F 1019.9 in Calm     92 % 0.0 in
00:15 -10.4 °F -11.5 °F 1019.9 in Calm     92 % 0.0 in
00:30 -10.6 °F -11.7 °F 1019.9 in Calm     92 % 0.0 in
00:45 -10.8 °F -12.0 °F 1020.2 in Calm     91 % 0.0 in
01:00 -11.1 °F -12.3 °F 1020.2 in Calm     91 % 0.0 in
01:15 -11.3 °F -12.5 °F 1020.5 in Calm     91 % 0.0 in
01:30 -11.6 °F -12.8 °F 1020.5 in Calm     91 % 0.0 in
01:45 -11.9 °F -13.3 °F 1020.9 in Calm     90 % 0.0 in
02:00 -12.2 °F -13.3 °F 1020.9 in Calm     91 % 0.0 in
02:15 -12.3 °F -13.4 °F 1020.9 in Calm     91 % 0.0 in
02:30 -12.6 °F -13.7 °F 1020.9 in Calm     91 % 0.0 in
02:45 -12.7 °F -14.0 °F 1020.9 in Calm     90 % 0.0 in
03:00 -13.0 °F -14.3 °F 1020.9 in Calm     90 % 0.0 in
03:15 -13.2 °F -14.5 °F 1020.9 in Calm     90 % 0.0 in
03:30 -13.1 °F -14.3 °F 1021.2 in Calm     91 % 0.0 in
03:45 -13.1 °F -14.3 °F 1021.6 in Calm     91 % 0.0 in
04:00 -13.0 °F -14.2 °F 1021.6 in Calm     91 % 0.0 in
04:15 -13.1 °F -14.2 °F 1021.6 in Calm     91 % 0.0 in
04:30 -13.2 °F -14.5 °F 1021.6 in Calm     90 % 0.0 in
04:45 -13.2 °F -14.5 °F 1021.6 in Calm     90 % 0.0 in
05:00 -13.2 °F -14.5 °F 1021.9 in Calm     90 % 0.0 in
05:15 -13.3 °F -14.6 °F 1021.9 in Calm     90 % 0.0 in
05:30 -13.5 °F -14.8 °F 1021.9 in Calm     90 % 0.0 in
05:45 -13.6 °F -14.9 °F 1022.2 in Calm     90 % 0.0 in
06:00 -13.7 °F -15.0 °F 1022.2 in Calm     90 % 0.0 in
06:15 -13.7 °F -15.0 °F 1022.6 in Calm     90 % 0.0 in
06:30 -13.8 °F -15.1 °F 1022.6 in Calm     90 % 0.0 in
06:45 -14.0 °F -15.3 °F 1022.9 in Calm     90 % 0.0 in
07:00 -14.1 °F -15.4 °F 1022.9 in Calm     90 % 0.0 in
07:15 -14.3 °F -15.7 °F 1023.2 in Calm     89 % 0.0 in
07:30 -14.5 °F -15.8 °F 1023.2 in Calm     90 % 0.0 in
07:45 -14.6 °F -16.0 °F 1023.6 in Calm     89 % 0.0 in
08:00 -14.6 °F -15.9 °F 1023.6 in Calm     90 % 0.0 in
08:15 -14.6 °F -15.9 °F 1023.6 in Calm     90 % 0.0 in
08:30 -14.6 °F -15.9 °F 1023.9 in Calm     90 % 0.0 in
08:45 -14.2 °F -15.3 °F 1023.9 in Calm     91 % 0.0 in
09:00 -13.8 °F -14.9 °F 1023.9 in Calm     91 % 0.0 in
09:15 -13.3 °F -14.3 °F 1023.9 in Calm     92 % 0.0 in
09:30 -12.8 °F -13.8 °F 1024.3 in Calm     92 % 0.0 in
09:45 -12.3 °F -13.4 °F 1024.3 in Calm     92 % 0.0 in
10:00 -11.8 °F -12.8 °F 1024.3 in Calm     92 % 0.0 in
10:15 -11.2 °F -12.1 °F 1024.3 in Calm     93 % 0.0 in
10:30 -10.6 °F -11.5 °F 1024.6 in Calm     93 % 0.0 in
10:45 -9.9 °F -10.7 °F 1024.6 in Calm   1.6 mph 94 % 0.0 in
11:00 -9.1 °F -10.0 °F 1024.6 in Calm     93 % 0.0 in
11:15 -8.5 °F -9.4 °F 1024.6 in Calm     93 % 0.0 in
11:30 -7.8 °F -8.9 °F 1024.6 in Calm     92 % 0.0 in
11:45 -7.4 °F -8.6 °F 1024.9 in Calm     91 % 0.0 in
12:00 -7.1 °F -8.3 °F 1024.9 in Calm   3.2 mph 91 % 0.0 in
12:15 -6.5 °F -7.9 °F 1024.9 in Calm     90 % 0.0 in
12:30 -6.1 °F -7.6 °F 1024.9 in Calm   1.6 mph 89 % 0.0 in
12:45 -5.9 °F -7.4 °F 1024.9 in Calm   3.2 mph 89 % 0.0 in
13:00 -5.7 °F -7.4 °F 1024.9 in Calm   3.2 mph 88 % 0.0 in
13:15 -5.5 °F -7.2 °F 1024.9 in Calm   3.2 mph 88 % 0.0 in
13:30 -5.0 °F -6.8 °F 1024.9 in Calm   1.6 mph 87 % 0.0 in
13:45 -4.7 °F -6.7 °F 1024.9 in Calm   3.2 mph 86 % 0.0 in
14:00 -4.3 °F -6.5 °F 1024.9 in Calm   3.2 mph 85 % 0.0 in
14:15 -4.2 °F -6.3 °F 1024.9 in Calm   3.2 mph 85 % 0.0 in
14:30 -3.9 °F -6.2 °F 1024.9 in Calm   3.2 mph 84 % 0.0 in
14:45 -3.7 °F -6.1 °F 1024.9 in Calm   3.2 mph 83 % 0.0 in
15:00 -3.3 °F -5.8 °F 1024.9 in Calm   3.2 mph 83 % 0.0 in
15:15 -3.0 °F -5.8 °F 1024.9 in Calm   3.2 mph 81 % 0.0 in
15:30 -2.7 °F -5.6 °F 1024.9 in Calm   1.6 mph 80 % 0.0 in
15:45 -2.3 °F -5.4 °F 1024.9 in Calm   1.6 mph 79 % 0.0 in
16:00 -2.8 °F -6.0 °F 1024.9 in Calm   4.8 mph 79 % 0.0 in
16:15 -3.3 °F -6.1 °F 1024.9 in Calm   3.2 mph 81 % 0.0 in
16:30 -3.7 °F -6.3 °F 1024.9 in Calm   1.6 mph 82 % 0.0 in
16:45 -4.2 °F -6.5 °F 1024.9 in Calm   1.6 mph 84 % 0.0 in
17:00 -4.5 °F -6.6 °F 1024.9 in Calm   1.6 mph 85 % 0.0 in
17:15 -4.7 °F -6.9 °F 1025.3 in Calm     85 % 0.0 in
17:30 -4.9 °F -6.9 °F 1025.3 in Calm     86 % 0.0 in
17:45 -5.2 °F -7.2 °F 1025.3 in Calm     86 % 0.0 in
18:00 -5.5 °F -7.5 °F 1025.3 in Calm     86 % 0.0 in
18:15 -5.8 °F -7.6 °F 1025.3 in Calm     87 % 0.0 in
18:30 -6.1 °F -7.9 °F 1025.3 in Calm     87 % 0.0 in
18:45 -6.3 °F -8.0 °F 1025.3 in Calm     88 % 0.0 in
19:00 -6.6 °F -8.3 °F 1025.6 in Calm     88 % 0.0 in
19:15 -6.9 °F -8.4 °F 1025.6 in Calm     89 % 0.0 in
19:30 -7.2 °F -8.7 °F 1026.0 in Calm     89 % 0.0 in
19:45 -7.3 °F -8.7 °F 1026.0 in Calm     90 % 0.0 in
20:00 -7.4 °F -8.8 °F 1026.3 in Calm     90 % 0.0 in
20:15 -7.6 °F -9.0 °F 1026.3 in Calm     90 % 0.0 in
20:30 -7.8 °F -9.1 °F 1026.3 in Calm   3.2 mph 90 % 0.0 in
20:45 -8.3 °F -9.7 °F 1026.3 in Calm     90 % 0.0 in
21:00 -8.7 °F -9.9 °F 1026.3 in Calm     91 % 0.0 in
21:15 -9.1 °F -10.3 °F 1026.6 in Calm     91 % 0.0 in
21:30 -9.4 °F -10.4 °F 1026.6 in Calm   1.6 mph 92 % 0.0 in
21:45 -9.7 °F -10.9 °F 1026.6 in Calm   3.2 mph 91 % 0.0 in
22:00 -10.0 °F -11.2 °F 1027.0 in Calm     91 % 0.0 in
22:15 -9.9 °F -11.0 °F 1027.0 in Calm   3.2 mph 92 % 0.0 in
22:30 -10.0 °F -11.1 °F 1027.0 in Calm     92 % 0.0 in
22:45 -9.9 °F -10.8 °F 1027.3 in Calm     93 % 0.0 in
23:00 -10.2 °F -11.4 °F 1027.3 in Calm     91 % 0.0 in
23:15 -10.6 °F -11.8 °F 1027.0 in Calm     91 % 0.0 in
23:30 -10.9 °F -12.1 °F 1027.3 in Calm   1.6 mph 91 % 0.0 in
23:45 -10.7 °F -11.8 °F 1027.3 in Calm     92 % 0.0 in
Esan sääasema
Terveisin Weather Underground - 3 mb

Alkuperäinen skripti  Jim McMurry - jmcmurry@mwt.net Sovitettu myös templatelle  Wim van der Kuil - Leuven-Template.eu

Laitteet joita käytämme:

Sääasema
Davis VP2

Sääasemaohjelma
Cumulus

Sääaseman tietokone
Asus EeePC

Palveluntarjoaja
Suncomet

Davis VP2

Cumulus

Asus EeePC

Suncomet